Aérodrome :
LOGIN :

S'inscrire | Disclaimer

   EN    FR    IT 

 










Légende :    VFR   VFR Marginal   IFR   IFR Intensif   IFR Très Intensif
Visi : 
Plafond : 
>= 8 km
>= 3000ft
5 à 8 km
1000 à 3000 ft
1500m à 5 km
500 à 1000 ft
800 à 1500m
200 à 500 ft
< 800m
< 200 ft
Symboles :   Orages  Brouillard  Fortes neiges  Fortes précipitations  Vent > 20 kt
SIGMETs :   Divers  Orages  Givrage  Turbulence  Onde Orograph.  Cendres Volcan.







- Altitude de l'aérodrome : 13 ft
- Code IATA : SNR
- Voir les cartes d'approche


LFRZ - St-Nazaire

DERNIER METAR :
  • 280300Z AUTO 23013KT 9999 ///TCU 08/04 Q0995 TEMPO 24020G35KT 3000 SHRA BKN020CB

METARs EXPIRÉS :
  • 280230Z AUTO 22014KT 9999 FEW033/// SCT050/// OVC180/// ///TCU 07/04 Q0996 TEMPO 24020G35KT 3000 SHRA BKN020CB
  • 280200Z AUTO 23013KT 9999 FEW029 SCT042 BKN050 08/03 Q0996 TEMPO 3000 SHRA BKN020CB BECMG 30015G25KT
  • 280130Z AUTO 24012KT CAVOK 07/03 Q0997 TEMPO 3000 SHRA BKN020CB BECMG 30015G25KT
  • 280100Z AUTO 24017KT 9999 FEW032 SCT042 BKN058 07/01 Q0997 TEMPO 3000 SHRA BKN020CB BECMG 30015G25KT
  • 280030Z AUTO 24012KT 9999 FEW035 SCT120 BKN150 08/04 Q0997 TEMPO 3000 SHRA BKN020CB BECMG 30015G25KT

TAF TAF LFRZ
Valide du 28 à 00h jusqu'au 01 à 00h UTC


272300Z 2800/2824 24015G25KT 9999 SCT020 SCT050
TEMPO 2800/2805 3000 SHRA BKN020CB
BECMG 2802/2804 30015G25KT
TEMPO 2804/2824 24020G35KT 3000 SHRA BKN015TCU
PROB30
TEMPO 2805/2809 26030G50KT 2000 -TSRA BKN012 SCT018CB
Pas de NOTAMs connus pour ce terrain.
2 SIGMETs publiés pour la FIR Brest (LFRR) :
 
Turbulence forte
LFRR SIGMET 11 VALID 280000/280400 LFPW
LFRR BREST FIR/UIR SEV TURB FCST WI N4630 W00100 - N4630 W00130 - N4330 W00145 - N4500 W00800 - N4900 W00800 - N5000 W00200 - N5000 W00015 - N4915 W00015 - N4815 W00230 SFC/FL060 STNR NC=
Orages noyés dans la masse
LFRR SIGMET 1 VALID 280300/280500 LFPW
LFRR BREST FIR/UIR EMBD TS OBS WI N4700 W00800 - N4900 W00800 - N5000 W00200 - N5000 W00030 - N4600 W00245 TOP FL270 MOV E 15KT NC=



MET'MAP, la Météo Aéronautique d'un coup d'oeil ! - Copyright ORBIFLY Décembre 2007 - Disclaimer

ORBIFLY MET'MAP TEAM :

Programmation & Développement : Alexandra Zaïnal
Conception & Développement : Baudouin d'Aumeries
Co-Programmation & Développement : Marc-Olivier Méhu
Soutien technique & logistique : Manuel Goepfert

Contact : metmap@orbifly.com




SOURCES & CREDITS :

   NOAA